createdAt,value
2022-10-01T00:01:17.718Z,99.80
2022-10-01T00:03:45.229Z,99.80
2022-10-01T00:06:18.333Z,100.00
2022-10-01T00:08:48.893Z,100.00
2022-10-01T00:11:19.868Z,99.89
2022-10-01T00:13:47.374Z,100.00
2022-10-01T00:16:22.860Z,100.00
2022-10-01T00:18:50.489Z,100.00
2022-10-01T00:21:23.070Z,100.00
2022-10-01T00:23:55.673Z,100.00
2022-10-01T00:26:25.660Z,100.00
2022-10-01T00:29:13.439Z,100.00
2022-10-01T00:31:40.197Z,100.00
2022-10-01T00:34:06.933Z,99.65
2022-10-01T00:36:34.516Z,99.92
2022-10-01T00:39:02.206Z,99.81
2022-10-01T00:41:31.511Z,99.02
2022-10-01T00:43:59.859Z,99.24
2022-10-01T00:46:38.531Z,98.90
2022-10-01T00:49:09.271Z,98.96
2022-10-01T00:51:43.034Z,98.00
2022-10-01T00:54:17.249Z,98.10
2022-10-01T00:56:44.844Z,97.36
2022-10-01T00:59:12.995Z,97.42
2022-10-01T01:01:39.590Z,96.55
2022-10-01T01:04:16.712Z,96.80
2022-10-01T01:07:04.178Z,97.00
2022-10-01T01:09:37.822Z,96.79
2022-10-01T01:12:13.574Z,96.15
2022-10-01T01:15:21.546Z,94.88
2022-10-01T01:17:54.741Z,92.94
2022-10-01T01:20:45.610Z,92.85
2022-10-01T01:23:14.963Z,93.40
2022-10-01T01:25:59.347Z,92.96
2022-10-01T01:28:40.078Z,92.55
2022-10-01T01:31:14.604Z,90.34
2022-10-01T01:33:45.282Z,91.08
2022-10-01T01:36:17.294Z,91.65
2022-10-01T01:38:49.381Z,91.12
2022-10-01T01:41:20.221Z,89.75
2022-10-01T01:43:51.396Z,90.72
2022-10-01T01:46:20.191Z,89.92
2022-10-01T01:48:51.481Z,90.22
2022-10-01T01:51:25.007Z,90.57
2022-10-01T01:53:52.061Z,90.60
2022-10-01T01:56:18.759Z,89.68
2022-10-01T01:58:46.199Z,90.12
2022-10-01T02:01:51.650Z,89.40
2022-10-01T02:04:34.006Z,89.26
2022-10-01T02:07:25.454Z,88.82
2022-10-01T02:10:19.860Z,89.00
2022-10-01T02:12:46.567Z,89.59
2022-10-01T02:15:41.001Z,88.27
2022-10-01T02:18:18.437Z,87.95
2022-10-01T02:21:15.260Z,88.36
2022-10-01T02:23:49.018Z,87.94
2022-10-01T02:26:19.738Z,88.09
2022-10-01T02:28:49.477Z,88.00
2022-10-01T02:31:18.088Z,88.23
2022-10-01T02:33:46.439Z,88.18
2022-10-01T02:36:15.196Z,87.95
2022-10-01T02:38:45.411Z,88.34
2022-10-01T02:41:16.487Z,88.28
2022-10-01T02:43:54.117Z,88.66
2022-10-01T02:46:30.709Z,88.35
2022-10-01T02:48:58.169Z,88.95
2022-10-01T02:51:34.792Z,88.18
2022-10-01T02:54:17.829Z,88.25
2022-10-01T02:57:03.456Z,88.27
2022-10-01T02:59:30.007Z,88.39
2022-10-01T03:01:56.661Z,88.75
2022-10-01T03:04:23.352Z,87.96
2022-10-01T03:06:49.947Z,88.04
2022-10-01T08:00:55.986Z,100.00
2022-10-01T08:03:22.780Z,100.00
2022-10-01T08:05:49.872Z,100.00
2022-10-01T08:08:16.436Z,100.00
2022-10-01T08:10:43.029Z,100.00
2022-10-01T08:13:15.486Z,100.00
2022-10-01T08:15:44.002Z,100.00
2022-10-01T08:18:11.350Z,100.00
2022-10-01T08:20:41.575Z,100.00
2022-10-01T08:23:13.112Z,100.00
2022-10-01T08:25:40.957Z,100.00
2022-10-01T08:28:09.146Z,100.00
2022-10-01T08:30:37.843Z,100.00
2022-10-01T08:33:04.539Z,100.00
2022-10-01T08:35:31.545Z,100.00
2022-10-01T08:38:06.684Z,100.00
2022-10-01T08:40:36.864Z,100.00
2022-10-01T08:43:07.103Z,100.00
2022-10-01T08:45:51.680Z,100.00
2022-10-01T08:48:44.228Z,100.00
2022-10-01T08:51:17.105Z,100.00
2022-10-01T08:54:01.047Z,100.00
2022-10-01T08:56:44.460Z,100.00
2022-10-01T08:59:42.995Z,100.00
2022-10-01T09:02:20.849Z,100.00
2022-10-01T09:04:50.943Z,100.00
2022-10-01T09:07:38.262Z,100.00
2022-10-01T09:10:13.468Z,100.00
2022-10-01T09:13:04.816Z,100.00
2022-10-01T09:15:45.542Z,100.00
2022-10-01T09:18:45.012Z,100.00
2022-10-01T09:21:25.977Z,100.00
2022-10-01T09:24:15.255Z,100.00
2022-10-01T09:26:46.729Z,100.00
2022-10-01T09:29:17.766Z,100.00
2022-10-01T09:31:47.651Z,100.00
2022-10-01T09:34:19.676Z,100.00
2022-10-01T09:36:52.301Z,100.00
2022-10-01T09:39:23.883Z,100.00
2022-10-01T09:41:50.902Z,100.00
2022-10-01T09:44:22.184Z,100.00
2022-10-01T09:46:49.197Z,100.00
2022-10-01T09:49:24.862Z,100.00
2022-10-01T09:51:57.350Z,100.00
2022-10-01T09:54:26.578Z,100.00
2022-10-01T09:57:09.501Z,100.00
2022-10-01T09:59:55.364Z,100.00
2022-10-01T10:02:31.433Z,100.00
2022-10-01T10:05:16.059Z,100.00
2022-10-01T10:08:15.712Z,100.00
2022-10-01T10:11:00.706Z,100.00
2022-10-01T10:13:34.869Z,100.00
2022-10-01T10:16:28.107Z,100.00
2022-10-01T10:18:58.673Z,100.00
2022-10-01T10:21:29.600Z,100.00
2022-10-01T10:24:00.266Z,100.00
2022-10-01T10:26:32.528Z,100.00
2022-10-01T10:29:02.250Z,100.00
2022-10-01T10:31:55.566Z,100.00
2022-10-01T10:34:31.979Z,100.00
2022-10-01T10:37:01.053Z,100.00
2022-10-01T10:39:31.582Z,100.00
2022-10-01T10:42:00.207Z,100.00
2022-10-01T10:44:36.219Z,100.00
2022-10-01T10:47:08.000Z,100.00
2022-10-01T10:49:43.605Z,100.00
2022-10-01T10:52:25.270Z,100.00
2022-10-01T10:54:53.887Z,100.00
2022-10-01T10:57:34.172Z,100.00
2022-10-01T11:00:16.536Z,100.00
2022-10-01T11:02:57.528Z,100.00
2022-10-01T11:05:29.042Z,100.00
2022-10-01T11:08:02.569Z,100.00
2022-10-01T11:10:34.815Z,100.00
2022-10-01T11:13:04.959Z,100.00
2022-10-01T11:15:49.631Z,100.00
2022-10-01T11:18:54.824Z,100.00
2022-10-01T11:21:31.819Z,100.00
2022-10-01T11:24:10.411Z,100.00
2022-10-01T11:26:53.470Z,100.00
2022-10-01T11:29:25.573Z,100.00
2022-10-01T11:32:23.703Z,100.00
2022-10-01T11:35:05.587Z,100.00
2022-10-01T11:37:52.106Z,100.00
2022-10-01T11:40:27.504Z,100.00
2022-10-01T11:43:00.205Z,100.00
2022-10-01T11:45:38.318Z,100.00
2022-10-01T11:48:12.755Z,100.00
2022-10-01T11:50:47.155Z,100.00
2022-10-01T11:53:22.940Z,100.00
2022-10-01T11:56:19.604Z,100.00
2022-10-01T11:58:57.394Z,100.00
2022-10-01T12:01:24.053Z,100.00
2022-10-01T12:03:53.545Z,100.00
2022-10-01T12:06:34.104Z,100.00
2022-10-01T12:09:28.473Z,100.00
2022-10-01T12:12:01.271Z,100.00
2022-10-01T12:15:06.737Z,100.00
2022-10-01T12:17:52.278Z,100.00
2022-10-01T12:20:31.987Z,100.00
2022-10-01T12:22:59.875Z,100.00
2022-10-01T12:26:01.987Z,100.00
2022-10-01T12:28:57.927Z,100.00
2022-10-01T12:31:42.603Z,100.00
2022-10-01T12:34:25.813Z,100.00
2022-10-01T12:37:10.513Z,100.00
2022-10-01T12:39:37.616Z,100.00
2022-10-01T12:42:25.908Z,100.00
2022-10-01T12:45:16.215Z,100.00
2022-10-01T12:47:43.239Z,100.00
2022-10-01T12:50:18.493Z,100.00
2022-10-01T12:52:45.087Z,100.00
2022-10-01T12:55:30.745Z,100.00
2022-10-01T12:58:02.275Z,100.00
2022-10-01T13:00:36.060Z,100.00
2022-10-01T13:03:30.456Z,100.00
2022-10-01T13:06:26.214Z,100.00
2022-10-01T13:09:06.645Z,100.00
2022-10-01T13:12:01.331Z,100.00
2022-10-01T13:14:28.440Z,100.00
2022-10-01T13:17:09.722Z,100.00
2022-10-01T13:20:14.129Z,100.00
2022-10-01T13:22:53.184Z,100.00
2022-10-01T13:25:33.361Z,100.00
2022-10-01T13:28:13.148Z,100.00
2022-10-01T13:31:00.207Z,100.00
2022-10-01T13:33:32.830Z,100.00
2022-10-01T13:36:01.574Z,100.00
2022-10-01T13:38:40.134Z,100.00
2022-10-01T13:41:18.862Z,100.00
2022-10-01T13:43:59.274Z,100.00
2022-10-01T13:46:31.240Z,99.78
2022-10-01T13:49:07.595Z,100.00
2022-10-01T13:51:36.255Z,100.00
2022-10-01T13:54:06.908Z,100.00
2022-10-01T13:56:37.253Z,100.00
2022-10-01T13:59:20.850Z,99.72
2022-10-01T14:01:47.878Z,97.57
2022-10-01T14:04:53.476Z,94.80
2022-10-01T14:07:26.535Z,94.20
2022-10-01T14:09:57.999Z,94.66
2022-10-01T14:12:54.996Z,93.50
2022-10-01T14:15:58.132Z,95.23
2022-10-01T14:18:30.044Z,94.71
2022-10-01T14:21:17.453Z,94.99
2022-10-01T14:24:05.528Z,95.37
2022-10-01T14:26:46.955Z,95.08
2022-10-01T14:29:34.640Z,94.82
2022-10-01T14:32:21.392Z,95.15
2022-10-01T14:35:05.914Z,95.51
2022-10-01T14:37:38.389Z,95.84
2022-10-01T14:40:20.627Z,95.40
2022-10-01T14:43:02.147Z,95.32
2022-10-01T14:45:29.419Z,95.33
2022-10-01T14:48:07.285Z,95.48
2022-10-01T14:50:37.320Z,95.11
2022-10-01T14:53:05.351Z,95.08
2022-10-01T14:55:34.807Z,94.74
2022-10-01T14:58:01.475Z,94.87
2022-10-01T15:00:30.682Z,95.12
2022-10-01T15:03:15.295Z,95.16
2022-10-01T15:05:43.323Z,95.84
2022-10-01T15:08:15.980Z,94.75
2022-10-01T15:10:56.507Z,95.09
2022-10-01T15:13:28.990Z,94.41
2022-10-01T15:15:56.389Z,94.45
2022-10-01T15:18:24.454Z,94.28
2022-10-01T15:21:06.476Z,93.35
2022-10-01T15:23:36.714Z,94.44
2022-10-01T15:26:08.817Z,94.59
2022-10-01T15:28:36.762Z,94.16
2022-10-01T15:31:05.874Z,93.72
2022-10-01T15:33:37.939Z,93.95
2022-10-01T15:36:07.664Z,93.75
2022-10-01T15:38:35.060Z,94.00
2022-10-01T15:41:30.059Z,94.61
2022-10-01T15:43:52.267Z,95.87
2022-10-01T15:46:23.497Z,97.11
2022-10-01T15:49:20.342Z,98.86
2022-10-01T15:52:34.355Z,99.86
2022-10-01T15:55:00.973Z,100.00
2022-10-01T15:57:31.499Z,100.00
2022-10-01T15:59:58.930Z,100.00
2022-10-01T16:02:29.627Z,100.00
2022-10-01T16:05:04.808Z,100.00
2022-10-01T16:07:34.885Z,100.00
2022-10-01T16:10:28.124Z,100.00
2022-10-01T16:12:54.775Z,100.00
2022-10-01T16:15:27.288Z,100.00
2022-10-01T16:17:59.406Z,100.00
2022-10-01T16:20:34.641Z,100.00
2022-10-01T16:23:34.502Z,100.00
2022-10-01T16:26:02.914Z,100.00
2022-10-01T16:28:34.764Z,100.00
2022-10-01T16:31:04.031Z,100.00
2022-10-01T16:33:30.774Z,100.00
2022-10-01T16:36:11.026Z,100.00
2022-10-01T16:38:37.713Z,100.00
2022-10-01T16:41:05.477Z,100.00
2022-10-01T16:43:32.276Z,100.00
2022-10-01T16:45:59.424Z,100.00
2022-10-01T16:48:26.399Z,100.00
2022-10-01T16:50:53.861Z,100.00
2022-10-01T16:53:21.005Z,100.00
2022-10-01T16:55:47.586Z,100.00
2022-10-01T16:58:14.588Z,100.00
2022-10-01T17:00:41.506Z,100.00
2022-10-01T17:03:14.816Z,100.00
2022-10-01T17:05:41.380Z,100.00
2022-10-01T17:08:17.202Z,100.00
2022-10-01T17:10:53.297Z,100.00
2022-10-01T17:13:19.973Z,100.00
2022-10-01T17:15:48.461Z,100.00
2022-10-01T17:18:15.101Z,100.00
2022-10-01T17:20:41.650Z,100.00
2022-10-01T17:23:08.413Z,100.00
2022-10-01T17:25:38.231Z,100.00
2022-10-01T17:28:08.475Z,100.00
2022-10-01T17:30:35.587Z,100.00
2022-10-01T17:33:02.234Z,100.00
2022-10-01T17:35:29.826Z,100.00
2022-10-01T17:37:56.978Z,100.00
2022-10-01T17:40:23.591Z,100.00
2022-10-01T17:42:50.237Z,100.00
2022-10-01T17:45:16.905Z,100.00
2022-10-01T17:47:45.683Z,100.00
2022-10-01T17:50:13.042Z,100.00
2022-10-01T17:52:39.886Z,100.00
2022-10-01T17:55:07.057Z,100.00
2022-10-01T17:57:34.075Z,100.00
2022-10-01T18:00:00.825Z,100.00
2022-10-01T18:02:41.761Z,100.00
2022-10-01T18:05:14.783Z,100.00
2022-10-01T18:07:42.286Z,100.00
2022-10-01T18:10:11.592Z,100.00
2022-10-01T18:12:38.306Z,100.00
2022-10-01T18:15:05.539Z,100.00
2022-10-01T18:17:33.282Z,100.00
2022-10-01T18:20:00.183Z,100.00
2022-10-01T18:22:27.766Z,100.00
2022-10-01T18:24:54.421Z,100.00
2022-10-01T18:27:20.976Z,100.00
2022-10-01T18:29:47.557Z,100.00
2022-10-01T18:32:21.410Z,100.00
2022-10-01T18:35:00.374Z,100.00
2022-10-01T18:37:37.674Z,100.00
2022-10-01T18:40:26.559Z,100.00
2022-10-01T18:43:17.959Z,100.00
2022-10-01T18:46:13.482Z,100.00
2022-10-01T18:49:17.824Z,100.00
2022-10-01T18:52:05.845Z,100.00
2022-10-01T18:55:03.460Z,100.00
2022-10-01T18:57:52.405Z,100.00
2022-10-01T19:00:25.290Z,100.00
2022-10-01T19:03:00.939Z,100.00
2022-10-01T19:05:58.095Z,100.00
2022-10-01T19:08:40.322Z,100.00
2022-10-01T19:11:37.186Z,100.00
2022-10-01T19:14:31.710Z,100.00
2022-10-01T19:17:16.577Z,100.00
2022-10-01T19:20:00.525Z,100.00
2022-10-01T19:22:42.236Z,100.00
2022-10-01T19:25:08.772Z,100.00
2022-10-01T19:27:50.226Z,100.00
2022-10-01T19:30:19.806Z,100.00
2022-10-01T19:32:49.257Z,100.00
2022-10-01T19:35:27.523Z,100.00
2022-10-01T19:38:04.153Z,100.00
2022-10-01T19:40:40.871Z,100.00
2022-10-01T19:43:07.434Z,100.00
2022-10-01T19:45:55.352Z,100.00
2022-10-01T19:48:45.489Z,100.00
2022-10-01T19:51:15.113Z,100.00
2022-10-01T19:53:45.734Z,100.00
2022-10-01T19:56:20.538Z,100.00
2022-10-01T19:58:47.466Z,100.00
2022-10-01T20:01:20.537Z,100.00
2022-10-01T20:04:27.867Z,100.00
2022-10-01T20:07:04.927Z,100.00
2022-10-01T20:09:45.342Z,100.00
2022-10-01T20:12:44.276Z,100.00
2022-10-01T20:15:42.721Z,100.00
2022-10-01T20:18:15.193Z,100.00
2022-10-01T20:21:09.623Z,100.00
2022-10-01T20:23:46.928Z,100.00
2022-10-01T20:26:21.570Z,100.00
2022-10-01T20:29:15.857Z,100.00
2022-10-01T20:32:14.620Z,100.00
2022-10-01T20:35:05.828Z,100.00
2022-10-01T20:37:52.480Z,100.00
2022-10-01T20:40:45.544Z,100.00
2022-10-01T20:43:22.119Z,100.00
2022-10-01T20:45:51.500Z,100.00
2022-10-01T20:48:20.230Z,100.00
2022-10-01T20:50:51.127Z,100.00
2022-10-01T20:53:38.675Z,100.00
2022-10-01T20:56:10.069Z,100.00
2022-10-01T20:58:50.589Z,100.00
2022-10-01T21:01:23.989Z,100.00
2022-10-01T21:04:05.726Z,100.00
2022-10-01T21:06:43.979Z,100.00
2022-10-01T21:09:20.429Z,100.00
2022-10-01T21:11:55.807Z,100.00
2022-10-01T21:14:28.044Z,100.00
2022-10-01T21:17:19.464Z,100.00
2022-10-01T21:20:10.487Z,100.00
2022-10-01T21:22:58.291Z,100.00
2022-10-01T21:25:35.472Z,100.00
2022-10-01T21:28:14.754Z,100.00
2022-10-01T21:31:05.953Z,100.00
2022-10-01T21:34:00.737Z,100.00
2022-10-01T21:36:46.000Z,100.00
2022-10-01T21:39:30.708Z,100.00
2022-10-01T21:42:20.406Z,100.00
2022-10-01T21:45:03.815Z,100.00
2022-10-01T21:47:48.258Z,100.00
2022-10-01T21:50:43.467Z,100.00
2022-10-01T21:53:50.357Z,100.00
2022-10-01T21:56:38.403Z,100.00
2022-10-01T21:59:42.113Z,100.00
2022-10-01T22:02:18.227Z,100.00
2022-10-01T22:04:56.601Z,100.00
2022-10-01T22:07:37.719Z,100.00
2022-10-01T22:10:04.296Z,100.00
2022-10-01T22:12:34.541Z,100.00
2022-10-01T22:15:03.295Z,100.00
2022-10-01T22:17:34.203Z,100.00
2022-10-01T22:20:05.012Z,100.00
2022-10-01T22:22:38.168Z,100.00
2022-10-01T22:25:06.482Z,100.00
2022-10-01T22:27:58.323Z,100.00
2022-10-01T22:30:28.908Z,100.00
2022-10-01T22:33:01.620Z,100.00
2022-10-01T22:35:45.532Z,100.00
2022-10-01T22:38:42.370Z,100.00
2022-10-01T22:41:37.552Z,100.00
2022-10-01T22:44:16.217Z,100.00
2022-10-01T22:47:12.748Z,100.00
2022-10-01T22:49:51.437Z,100.00
2022-10-01T22:52:28.350Z,100.00
2022-10-01T22:55:01.082Z,100.00
2022-10-01T22:57:36.511Z,100.00
2022-10-01T23:00:13.011Z,100.00
2022-10-01T23:02:53.486Z,100.00
2022-10-01T23:05:44.581Z,100.00
2022-10-01T23:08:25.068Z,100.00
2022-10-01T23:11:13.464Z,100.00
2022-10-01T23:13:56.706Z,100.00
2022-10-01T23:17:04.788Z,100.00
2022-10-01T23:19:46.257Z,100.00
2022-10-01T23:22:40.570Z,100.00
2022-10-01T23:25:23.941Z,100.00
2022-10-01T23:28:00.746Z,100.00
2022-10-01T23:30:52.019Z,100.00
2022-10-01T23:33:40.193Z,100.00
2022-10-01T23:36:21.656Z,100.00
2022-10-01T23:39:22.387Z,100.00
2022-10-01T23:42:01.891Z,100.00
2022-10-01T23:44:34.823Z,100.00
2022-10-01T23:47:08.395Z,100.00
2022-10-01T23:49:40.368Z,100.00
2022-10-01T23:52:25.118Z,100.00
2022-10-01T23:55:17.328Z,100.00
2022-10-01T23:57:45.122Z,100.00
